createdAt,value
2022-11-17T00:00:29.682Z,2.78
2022-11-17T00:02:59.085Z,2.85
2022-11-17T00:05:28.305Z,2.30
2022-11-17T00:07:57.505Z,2.75
2022-11-17T00:10:26.692Z,2.65
2022-11-17T00:13:08.370Z,3.00
2022-11-17T00:15:37.556Z,2.70
2022-11-17T00:18:20.418Z,2.53
2022-11-17T00:21:02.323Z,2.90
2022-11-17T00:23:47.343Z,2.53
2022-11-17T00:26:17.886Z,2.40
2022-11-17T00:28:47.383Z,2.15
2022-11-17T00:31:29.830Z,2.85
2022-11-17T00:34:08.537Z,2.30
2022-11-17T00:36:58.085Z,2.75
2022-11-17T00:39:27.320Z,2.63
2022-11-17T00:41:56.613Z,2.67
2022-11-17T00:44:25.865Z,2.45
2022-11-17T00:46:55.166Z,2.20
2022-11-17T00:49:25.305Z,2.22
2022-11-17T00:51:58.264Z,2.25
2022-11-17T00:54:27.524Z,2.00
2022-11-17T00:56:56.913Z,1.88
2022-11-17T00:59:26.146Z,2.72
2022-11-17T01:01:55.381Z,3.35
2022-11-17T01:04:24.632Z,1.88
2022-11-17T01:06:53.882Z,1.90
2022-11-17T01:09:24.336Z,2.72
2022-11-17T01:11:56.601Z,2.00
2022-11-17T01:14:27.249Z,2.20
2022-11-17T01:16:56.797Z,1.98
2022-11-17T01:19:26.388Z,2.35
2022-11-17T01:21:55.640Z,2.20
2022-11-17T01:24:24.880Z,2.08
2022-11-17T01:26:54.056Z,2.42
2022-11-17T01:29:26.571Z,2.20
2022-11-17T01:34:25.003Z,2.08
2022-11-17T01:37:06.673Z,2.10
2022-11-17T01:39:35.896Z,2.30
2022-11-17T01:42:06.479Z,2.40
2022-11-17T01:44:38.582Z,1.85
2022-11-17T01:47:08.863Z,1.70
2022-11-17T01:49:38.430Z,2.00
2022-11-17T01:52:10.282Z,2.08
2022-11-17T01:54:40.998Z,2.15
2022-11-17T01:57:15.431Z,1.80
2022-11-17T01:59:57.049Z,2.00
2022-11-17T02:02:26.442Z,1.92
2022-11-17T02:05:15.901Z,2.55
2022-11-17T02:07:45.738Z,2.00
2022-11-17T02:10:14.978Z,2.25
2022-11-17T02:12:44.365Z,2.20
2022-11-17T02:15:13.698Z,2.25
2022-11-17T02:17:46.042Z,2.22
2022-11-17T02:20:25.751Z,1.70
2022-11-17T02:23:07.130Z,1.90
2022-11-17T02:25:36.271Z,1.60
2022-11-17T02:28:11.551Z,1.70
2022-11-17T02:30:47.795Z,1.67
2022-11-17T02:33:35.926Z,1.30
2022-11-17T02:36:12.646Z,1.63
2022-11-17T02:38:54.481Z,1.65
2022-11-17T02:41:31.808Z,1.30
2022-11-17T02:44:04.326Z,1.40
2022-11-17T02:49:04.480Z,1.33
2022-11-17T02:51:33.829Z,1.45
2022-11-17T02:54:04.164Z,1.60
2022-11-17T02:56:33.492Z,1.55
2022-11-17T02:59:04.386Z,1.52
2022-11-17T03:01:39.213Z,1.60
2022-11-17T03:04:17.551Z,1.80
2022-11-17T03:07:05.150Z,1.77
2022-11-17T03:09:53.748Z,1.55
2022-11-17T03:12:44.562Z,1.60
2022-11-17T03:15:26.410Z,1.45
2022-11-17T03:18:06.965Z,1.55
2022-11-17T03:20:44.971Z,1.73
2022-11-17T03:23:19.249Z,1.92
2022-11-17T03:25:54.954Z,1.70
2022-11-17T03:28:26.000Z,1.63
2022-11-17T03:30:55.444Z,1.42
2022-11-17T03:33:25.533Z,1.88
2022-11-17T03:35:59.725Z,1.73
2022-11-17T03:38:31.362Z,2.35
2022-11-17T03:41:03.227Z,1.70
2022-11-17T03:43:34.039Z,2.28
2022-11-17T03:46:08.710Z,2.45
2022-11-17T03:48:40.716Z,2.20
2022-11-17T03:51:09.919Z,2.25
2022-11-17T03:53:39.618Z,1.85
2022-11-17T03:56:14.934Z,1.98
2022-11-17T03:58:52.552Z,2.20
2022-11-17T04:01:22.884Z,1.58
2022-11-17T04:03:52.070Z,1.70
2022-11-17T04:06:21.509Z,1.73
2022-11-17T04:08:53.054Z,1.83
2022-11-17T04:11:34.738Z,2.05
2022-11-17T04:14:16.413Z,1.80
2022-11-17T04:16:45.619Z,1.77
2022-11-17T04:19:14.808Z,2.17
2022-11-17T04:21:44.027Z,2.33
2022-11-17T04:24:13.243Z,3.40
2022-11-17T04:26:54.896Z,2.22
2022-11-17T04:29:24.186Z,1.90
2022-11-17T04:31:54.216Z,2.00
2022-11-17T04:34:26.437Z,2.20
2022-11-17T04:36:55.756Z,1.90
2022-11-17T04:39:24.975Z,1.70
2022-11-17T04:41:54.683Z,1.77
2022-11-17T04:44:25.669Z,2.88
2022-11-17T04:46:55.403Z,1.73
2022-11-17T04:49:25.430Z,2.00
2022-11-17T04:51:55.469Z,2.03
2022-11-17T04:54:26.280Z,1.75
2022-11-17T04:56:56.124Z,2.13
2022-11-17T04:59:25.610Z,1.60
2022-11-17T05:01:54.886Z,1.60
2022-11-17T05:04:36.662Z,1.38
2022-11-17T05:07:06.100Z,1.38
2022-11-17T05:09:35.389Z,1.42
2022-11-17T05:12:17.050Z,1.13
2022-11-17T05:14:47.682Z,1.40
2022-11-17T05:17:14.335Z,1.30
2022-11-17T05:19:45.226Z,1.45
2022-11-17T05:22:28.538Z,1.02
2022-11-17T05:24:58.466Z,1.42
2022-11-17T05:27:27.707Z,1.30
2022-11-17T05:29:56.879Z,2.83
2022-11-17T05:32:26.066Z,1.38
2022-11-17T05:34:55.251Z,1.48
2022-11-17T05:37:24.453Z,1.80
2022-11-17T05:39:53.692Z,1.58
2022-11-17T05:42:23.007Z,1.10
2022-11-17T05:44:52.209Z,1.35
2022-11-17T05:47:21.537Z,1.50
2022-11-17T05:49:50.780Z,1.65
2022-11-17T05:52:19.974Z,1.65
2022-11-17T05:54:49.279Z,1.67
2022-11-17T05:57:24.225Z,1.52
2022-11-17T05:59:56.766Z,1.35
2022-11-17T06:02:28.957Z,1.23
2022-11-17T06:04:58.221Z,1.50
2022-11-17T06:07:27.669Z,1.27
2022-11-17T06:09:57.304Z,2.67
2022-11-17T06:12:26.481Z,1.40
2022-11-17T06:14:55.768Z,1.83
2022-11-17T06:17:32.709Z,2.03
2022-11-17T06:20:08.572Z,1.27
2022-11-17T06:22:38.583Z,1.63
2022-11-17T06:25:09.634Z,1.20
2022-11-17T06:27:39.952Z,1.35
2022-11-17T06:30:09.801Z,2.08
2022-11-17T06:32:40.243Z,1.70
2022-11-17T06:35:10.549Z,1.85
2022-11-17T06:37:39.794Z,1.20
2022-11-17T06:40:10.045Z,2.00
2022-11-17T06:42:53.831Z,1.10
2022-11-17T06:45:23.110Z,1.40
2022-11-17T06:47:52.484Z,1.48
2022-11-17T06:50:21.792Z,1.83
2022-11-17T06:52:51.016Z,1.20
2022-11-17T06:55:20.563Z,1.52
2022-11-17T06:57:53.422Z,1.65
2022-11-17T07:00:23.196Z,1.52
2022-11-17T07:02:52.479Z,1.85
2022-11-17T07:05:21.804Z,1.42
2022-11-17T07:07:51.052Z,1.33
2022-11-17T07:10:20.481Z,1.58
2022-11-17T07:12:49.731Z,1.67
2022-11-17T07:15:19.062Z,1.35
2022-11-17T07:17:48.436Z,1.48
2022-11-17T07:20:17.742Z,1.70
2022-11-17T07:22:47.271Z,1.40
2022-11-17T07:25:22.158Z,2.28
2022-11-17T07:27:51.697Z,2.42
2022-11-17T07:30:20.930Z,2.03
2022-11-17T07:32:54.515Z,1.23
2022-11-17T07:35:24.167Z,1.73
2022-11-17T07:37:53.597Z,1.45
2022-11-17T07:40:22.842Z,1.88
2022-11-17T07:42:52.310Z,1.50
2022-11-17T07:45:25.100Z,1.63
2022-11-17T07:48:00.426Z,1.85
2022-11-17T07:50:30.561Z,1.20
2022-11-17T07:53:00.022Z,1.90
2022-11-17T07:55:29.254Z,1.63
2022-11-17T07:58:02.752Z,1.77
2022-11-17T08:00:33.817Z,1.95
2022-11-17T08:03:04.424Z,1.23
2022-11-17T08:05:41.977Z,1.52
2022-11-17T08:08:13.727Z,1.10
2022-11-17T08:10:43.204Z,1.02
2022-11-17T08:13:14.174Z,1.52
2022-11-17T08:15:43.517Z,1.17
2022-11-17T08:18:14.503Z,1.65
2022-11-17T08:20:43.756Z,1.13
2022-11-17T08:23:12.986Z,1.10
2022-11-17T08:25:42.308Z,1.30
2022-11-17T08:28:11.563Z,1.20
2022-11-17T08:30:41.057Z,1.10
2022-11-17T08:33:10.410Z,1.40
2022-11-17T08:35:39.705Z,1.48
2022-11-17T08:38:11.653Z,1.23
2022-11-17T08:40:41.216Z,1.27
2022-11-17T08:43:11.318Z,1.13
2022-11-17T08:45:40.557Z,0.80
2022-11-17T08:48:10.180Z,0.90
2022-11-17T08:50:39.451Z,0.75
2022-11-17T08:53:08.783Z,0.82
2022-11-17T08:55:41.409Z,1.02
2022-11-17T08:58:12.383Z,1.02
2022-11-17T09:00:42.674Z,1.40
2022-11-17T09:03:12.497Z,1.20
2022-11-17T09:05:43.166Z,1.30
2022-11-17T09:11:07.171Z,1.27
2022-11-17T09:13:36.830Z,0.85
2022-11-17T09:16:10.023Z,1.30
2022-11-17T09:18:41.227Z,1.20
2022-11-17T09:21:12.315Z,0.87
2022-11-17T09:23:41.800Z,1.15
2022-11-17T09:26:12.953Z,0.98
2022-11-17T09:28:42.550Z,1.00
2022-11-17T09:31:12.996Z,1.10
2022-11-17T09:33:42.476Z,0.85
2022-11-17T09:36:12.469Z,1.10
2022-11-17T09:38:42.105Z,1.10
2022-11-17T09:41:23.382Z,1.08
2022-11-17T09:43:55.730Z,1.00
2022-11-17T09:46:32.340Z,1.30
2022-11-17T09:49:17.466Z,1.40
2022-11-17T09:51:48.759Z,1.02
2022-11-17T09:54:24.149Z,1.00
2022-11-17T09:56:54.013Z,0.98
2022-11-17T09:59:24.224Z,1.05
2022-11-17T10:01:53.681Z,0.93
2022-11-17T10:04:22.973Z,1.05
2022-11-17T10:06:53.059Z,1.10
2022-11-17T10:09:31.263Z,1.00
2022-11-17T10:12:15.524Z,1.13
2022-11-17T10:14:44.904Z,1.05
2022-11-17T10:17:14.151Z,1.20
2022-11-17T10:19:44.008Z,1.00
2022-11-17T10:22:13.517Z,1.13
2022-11-17T10:24:46.875Z,0.80
2022-11-17T10:27:29.958Z,1.48
2022-11-17T10:30:03.493Z,1.02
2022-11-17T10:32:34.429Z,0.88
2022-11-17T10:35:17.585Z,1.10
2022-11-17T10:37:55.503Z,0.90
2022-11-17T10:40:26.363Z,0.93
2022-11-17T10:42:57.390Z,1.00
2022-11-17T10:45:26.607Z,0.90
2022-11-17T10:48:09.829Z,0.90
2022-11-17T10:50:39.282Z,1.27
2022-11-17T10:53:46.501Z,1.55
2022-11-17T10:56:24.954Z,1.10
2022-11-17T10:59:12.472Z,1.15
2022-11-17T11:01:45.926Z,1.10
2022-11-17T11:04:30.571Z,0.90
2022-11-17T11:07:15.078Z,0.90
2022-11-17T11:09:47.258Z,1.08
2022-11-17T11:12:18.833Z,0.90
2022-11-17T11:14:54.753Z,1.00
2022-11-17T11:17:24.140Z,0.93
2022-11-17T11:19:56.067Z,0.60
2022-11-17T11:22:38.032Z,1.20
2022-11-17T11:25:19.582Z,2.05
2022-11-17T11:28:15.318Z,1.02
2022-11-17T11:30:50.805Z,1.13
2022-11-17T11:33:26.358Z,0.95
2022-11-17T11:36:15.372Z,1.00
2022-11-17T11:39:08.113Z,1.25
2022-11-17T11:41:37.654Z,2.13
2022-11-17T11:44:09.756Z,1.00
2022-11-17T11:46:45.038Z,0.98
2022-11-17T11:49:29.336Z,1.25
2022-11-17T11:51:58.608Z,1.17
2022-11-17T11:54:34.927Z,1.00
2022-11-17T11:57:05.776Z,1.20
2022-11-17T11:59:40.919Z,0.90
2022-11-17T12:02:13.278Z,0.57
2022-11-17T12:07:33.586Z,0.88
2022-11-17T12:10:05.006Z,1.13
2022-11-17T12:12:36.406Z,0.80
2022-11-17T12:15:11.670Z,0.95
2022-11-17T12:17:55.979Z,0.70
2022-11-17T12:20:35.692Z,0.63
2022-11-17T12:23:21.651Z,1.05
2022-11-17T12:25:54.356Z,1.20
2022-11-17T12:28:53.818Z,1.13
2022-11-17T12:31:42.147Z,1.17
2022-11-17T12:34:13.854Z,1.13
2022-11-17T12:36:43.312Z,0.50
2022-11-17T12:39:32.515Z,0.90
2022-11-17T12:42:09.041Z,1.30
2022-11-17T12:44:41.356Z,0.70
2022-11-17T12:47:19.789Z,1.02
2022-11-17T12:49:52.077Z,1.23
2022-11-17T12:54:59.324Z,1.00
2022-11-17T12:57:30.342Z,0.75
2022-11-17T13:00:08.667Z,0.57
2022-11-17T13:02:48.664Z,1.00
2022-11-17T13:05:22.704Z,1.10
2022-11-17T13:07:52.165Z,0.85
2022-11-17T13:10:29.450Z,1.20
2022-11-17T13:13:15.555Z,0.88
2022-11-17T13:15:45.458Z,1.02
2022-11-17T13:18:27.404Z,1.20
2022-11-17T13:20:56.691Z,1.20
2022-11-17T13:23:27.507Z,0.88
2022-11-17T13:26:13.639Z,1.00
2022-11-17T13:28:42.949Z,0.70
2022-11-17T13:31:23.882Z,0.85
2022-11-17T13:34:04.689Z,1.25
2022-11-17T13:36:33.926Z,1.00
2022-11-17T13:39:03.140Z,0.75
2022-11-17T13:41:36.602Z,1.08
2022-11-17T13:44:06.306Z,0.98
2022-11-17T13:46:38.891Z,1.00
2022-11-17T13:51:39.209Z,0.95
2022-11-17T13:54:15.027Z,0.90
2022-11-17T13:56:51.623Z,0.85
2022-11-17T13:59:23.176Z,0.85
2022-11-17T14:01:52.556Z,0.85
2022-11-17T14:04:25.996Z,1.30
2022-11-17T14:06:55.539Z,0.95
2022-11-17T14:09:25.200Z,0.90
2022-11-17T14:11:54.622Z,0.98
2022-11-17T14:14:33.232Z,0.73
2022-11-17T14:17:13.025Z,0.80
2022-11-17T14:19:42.448Z,1.02
2022-11-17T14:22:17.635Z,1.17
2022-11-17T14:24:50.815Z,1.02
2022-11-17T14:27:32.330Z,0.75
2022-11-17T14:30:01.619Z,0.95
2022-11-17T14:32:32.359Z,0.82
2022-11-17T14:35:01.587Z,1.02
2022-11-17T14:37:32.233Z,1.00
2022-11-17T14:40:04.311Z,0.90
2022-11-17T14:42:36.081Z,0.98
2022-11-17T14:45:05.827Z,0.77
2022-11-17T14:47:35.026Z,1.00
2022-11-17T14:50:04.428Z,0.93
2022-11-17T14:52:33.642Z,1.67
2022-11-17T14:55:03.382Z,1.08
2022-11-17T14:57:32.603Z,1.20
2022-11-17T15:00:01.931Z,0.93
2022-11-17T15:02:31.196Z,1.23
2022-11-17T15:05:01.643Z,1.13
2022-11-17T15:07:31.304Z,1.13
2022-11-17T15:10:00.547Z,0.75
2022-11-17T15:12:29.998Z,1.20
2022-11-17T15:14:59.903Z,0.90
2022-11-17T15:17:29.762Z,0.77
2022-11-17T15:19:59.042Z,0.60
2022-11-17T15:22:28.624Z,0.80
2022-11-17T15:24:57.850Z,1.02
2022-11-17T15:27:27.058Z,0.88
2022-11-17T15:29:56.320Z,1.13
2022-11-17T15:32:25.590Z,0.90
2022-11-17T15:34:54.775Z,0.65
2022-11-17T15:37:23.989Z,0.73
2022-11-17T15:39:56.259Z,1.08
2022-11-17T15:42:25.485Z,0.70
2022-11-17T15:44:54.742Z,0.73
2022-11-17T15:47:23.978Z,0.60
2022-11-17T15:49:58.626Z,0.90
2022-11-17T15:52:48.829Z,1.30
2022-11-17T15:55:17.186Z,1.52
2022-11-17T15:57:46.675Z,0.80
2022-11-17T16:00:16.305Z,1.05
2022-11-17T16:02:45.485Z,0.88
2022-11-17T16:05:14.695Z,1.17
2022-11-17T16:10:33.073Z,0.60
2022-11-17T16:13:02.295Z,1.10
2022-11-17T16:15:31.564Z,1.33
2022-11-17T16:18:00.792Z,0.95
2022-11-17T16:20:30.081Z,1.50
2022-11-17T16:23:00.001Z,1.30
2022-11-17T16:25:29.285Z,1.48
2022-11-17T16:27:58.505Z,1.10
2022-11-17T16:30:34.172Z,1.05
2022-11-17T16:33:05.338Z,1.27
2022-11-17T16:35:34.539Z,1.38
2022-11-17T16:38:04.091Z,1.33
2022-11-17T16:40:35.139Z,1.30
2022-11-17T16:43:04.443Z,1.30
2022-11-17T16:45:33.658Z,0.90
2022-11-17T16:48:02.952Z,1.13
2022-11-17T16:50:32.126Z,1.00
2022-11-17T16:53:01.375Z,1.00
2022-11-17T16:55:30.573Z,1.50
2022-11-17T16:57:59.848Z,1.65
2022-11-17T17:00:29.097Z,1.70
2022-11-17T17:02:58.402Z,1.67
2022-11-17T17:05:29.454Z,1.83
2022-11-17T17:07:59.323Z,1.80
2022-11-17T17:10:28.604Z,1.75
2022-11-17T17:12:57.805Z,2.25
2022-11-17T17:15:27.015Z,1.92
2022-11-17T17:17:56.239Z,2.13
2022-11-17T17:20:25.551Z,2.05
2022-11-17T17:22:56.853Z,1.92
2022-11-17T17:25:29.608Z,2.30
2022-11-17T17:27:58.933Z,2.00
2022-11-17T17:30:28.155Z,1.58
2022-11-17T17:32:57.432Z,2.33
2022-11-17T17:35:26.673Z,1.60
2022-11-17T17:37:55.886Z,1.60
2022-11-17T17:40:25.411Z,2.35
2022-11-17T17:42:54.639Z,1.85
2022-11-17T17:45:23.925Z,2.30
2022-11-17T17:47:53.160Z,1.67
2022-11-17T17:50:22.514Z,1.67
2022-11-17T17:52:51.900Z,1.45
2022-11-17T17:55:21.131Z,1.38
2022-11-17T17:57:50.455Z,1.27
2022-11-17T18:00:20.050Z,1.70
2022-11-17T18:02:49.563Z,1.70
2022-11-17T18:05:22.494Z,1.55
2022-11-17T18:07:52.249Z,1.40
2022-11-17T18:10:21.447Z,1.55
2022-11-17T18:12:50.738Z,1.80
2022-11-17T18:15:20.042Z,1.70
2022-11-17T18:17:49.343Z,1.60
2022-11-17T18:20:19.296Z,1.90
2022-11-17T18:22:48.522Z,1.48
2022-11-17T18:25:18.143Z,2.22
2022-11-17T18:27:47.368Z,1.92
2022-11-17T18:30:16.686Z,1.95
2022-11-17T18:32:45.904Z,1.63
2022-11-17T18:35:15.122Z,1.70
2022-11-17T18:37:44.403Z,1.77
2022-11-17T18:40:14.089Z,2.15
2022-11-17T18:42:43.425Z,1.60
2022-11-17T18:45:12.632Z,1.23
2022-11-17T18:47:41.940Z,1.88
2022-11-17T18:50:11.455Z,1.38
2022-11-17T18:52:41.095Z,1.40
2022-11-17T18:55:10.654Z,1.52
2022-11-17T18:57:44.683Z,1.52
2022-11-17T19:00:14.774Z,1.58
2022-11-17T19:02:44.047Z,2.10
2022-11-17T19:05:13.306Z,1.90
2022-11-17T19:07:42.685Z,1.80
2022-11-17T19:10:11.975Z,1.73
2022-11-17T19:12:41.246Z,1.75
2022-11-17T19:15:10.578Z,2.13
2022-11-17T19:17:39.979Z,1.92
2022-11-17T19:20:09.591Z,1.70
2022-11-17T19:22:38.766Z,1.67
2022-11-17T19:25:08.196Z,1.40
2022-11-17T19:27:37.413Z,1.80
2022-11-17T19:30:08.418Z,1.60
2022-11-17T19:32:37.665Z,1.80
2022-11-17T19:35:15.710Z,1.90
2022-11-17T19:37:47.608Z,2.10
2022-11-17T19:40:16.951Z,2.53
2022-11-17T19:42:47.666Z,2.30
2022-11-17T19:45:16.984Z,2.03
2022-11-17T19:47:46.206Z,1.90
2022-11-17T19:50:15.426Z,2.17
2022-11-17T19:52:44.866Z,1.88
2022-11-17T19:55:14.139Z,2.55
2022-11-17T19:57:43.419Z,2.45
2022-11-17T20:00:12.991Z,2.40
2022-11-17T20:02:42.650Z,2.17
2022-11-17T20:05:11.885Z,2.80
2022-11-17T20:07:41.267Z,2.47
2022-11-17T20:10:10.751Z,3.08
2022-11-17T20:12:41.383Z,2.50
2022-11-17T20:15:27.026Z,2.10
2022-11-17T20:18:00.169Z,2.78
2022-11-17T20:20:29.433Z,2.78
2022-11-17T20:22:58.742Z,2.20
2022-11-17T20:25:28.987Z,2.50
2022-11-17T20:27:58.258Z,2.10
2022-11-17T20:30:27.436Z,2.70
2022-11-17T20:32:56.686Z,3.05
2022-11-17T20:35:25.951Z,2.15
2022-11-17T20:37:55.263Z,2.20
2022-11-17T20:40:24.598Z,2.60
2022-11-17T20:42:55.197Z,2.40
2022-11-17T20:45:24.429Z,2.72
2022-11-17T20:47:53.661Z,2.55
2022-11-17T20:50:22.880Z,2.63
2022-11-17T20:52:52.078Z,2.17
2022-11-17T20:55:21.364Z,2.10
2022-11-17T20:57:50.615Z,2.15
2022-11-17T21:00:20.034Z,2.00
2022-11-17T21:02:49.260Z,1.95
2022-11-17T21:05:18.423Z,2.50
2022-11-17T21:07:47.624Z,2.38
2022-11-17T21:10:16.846Z,1.85
2022-11-17T21:12:46.062Z,2.13
2022-11-17T21:15:15.254Z,3.08
2022-11-17T21:17:56.930Z,2.40
2022-11-17T21:20:28.145Z,2.27
2022-11-17T21:22:57.691Z,2.15
2022-11-17T21:25:26.954Z,2.47
2022-11-17T21:27:56.160Z,3.38
2022-11-17T21:30:25.378Z,2.65
2022-11-17T21:32:54.546Z,2.35
2022-11-17T21:35:23.738Z,2.10
2022-11-17T21:37:52.949Z,1.98
2022-11-17T21:40:22.207Z,2.50
2022-11-17T21:42:51.443Z,2.95
2022-11-17T21:45:20.665Z,3.00
2022-11-17T21:47:51.333Z,3.25
2022-11-17T21:50:22.133Z,2.78
2022-11-17T21:52:51.343Z,3.00
2022-11-17T21:55:20.599Z,3.22
2022-11-17T21:57:52.761Z,2.88
2022-11-17T22:00:22.123Z,2.15
2022-11-17T22:02:51.632Z,2.97
2022-11-17T22:05:22.205Z,3.35
2022-11-17T22:07:51.573Z,2.85
2022-11-17T22:10:20.828Z,3.42
2022-11-17T22:12:50.055Z,3.10
2022-11-17T22:15:19.294Z,2.83
2022-11-17T22:17:48.780Z,2.75
2022-11-17T22:20:18.129Z,2.63
2022-11-17T22:22:49.183Z,4.30
2022-11-17T22:25:43.498Z,2.88
2022-11-17T22:28:07.689Z,2.80
2022-11-17T22:30:36.921Z,3.38
2022-11-17T22:33:06.143Z,3.67
2022-11-17T22:35:35.413Z,3.53
2022-11-17T22:38:04.677Z,3.65
2022-11-17T22:40:33.875Z,3.20
2022-11-17T22:43:04.593Z,3.05
2022-11-17T22:45:34.749Z,3.17
2022-11-17T22:48:04.578Z,3.13
2022-11-17T22:50:33.879Z,3.08
2022-11-17T22:53:03.794Z,2.35
2022-11-17T22:55:33.106Z,2.78
2022-11-17T22:58:02.494Z,3.22
2022-11-17T23:00:31.791Z,2.80
2022-11-17T23:03:01.121Z,2.63
2022-11-17T23:05:30.462Z,2.65
2022-11-17T23:07:59.677Z,2.30
2022-11-17T23:10:28.866Z,2.53
2022-11-17T23:12:58.486Z,3.17
2022-11-17T23:18:01.698Z,2.70
2022-11-17T23:20:30.941Z,2.35
2022-11-17T23:23:00.140Z,2.55
2022-11-17T23:25:29.308Z,2.95
2022-11-17T23:27:58.489Z,2.78
2022-11-17T23:30:27.661Z,2.65
2022-11-17T23:32:57.277Z,2.33
2022-11-17T23:35:26.478Z,2.85
2022-11-17T23:37:55.709Z,2.30
2022-11-17T23:40:24.939Z,2.55
2022-11-17T23:42:55.699Z,2.80
2022-11-17T23:45:25.106Z,2.20
2022-11-17T23:47:54.311Z,2.42
2022-11-17T23:50:23.562Z,2.35
2022-11-17T23:52:52.746Z,2.95
2022-11-17T23:55:21.920Z,2.60
2022-11-17T23:57:51.175Z,2.33
